Palmetto, Florida
Current Conditions -  °F | °C
As of 5:53 AM on Tuesday 21 Oct 2014 (Local Time) from KSRQ Reporting Station
Few Clouds Few Clouds  
Wind Chill: 70°   Ceiling: Unl
Heat Index: 70°   Visibility: 10mi
Dew Point: 66°   Wind: 0mph
Humidity: 87%   Direction: NA
Pressure: 29.91"   Gusts: NA
Location:  27.52°N, 82.57°W
Report Text: KSRQ 210953Z 00000KT 10SM FEW065 21/19 A2991 RMK AO2 SLP129 T02110189
Loading
Personal Weather Stations






























Interactive Weather Map
Tropical Storm Tracking
New forecast layout! Learn more

10-Day Weather Forecast

Advertisements
Track Severe Weather on mobile